Joy — V2EI9 — position and weather

sailwx.info

Track history (hours):
 
Tides and Currents Weather Stations Pressure Air Temp Water Temp Dewpoint Dewpoint Depression Visibility Wind Speed Wind Dir Waves Ship Positions

Joy

Last reported at 2014-Jul-22 12:26 UTC. Time now 2014-Jul-22 15:02 UTC.
Position N 54°37' W 005°54'.

Length 105 m; draft 6.2 m.

Type: Cargo ship. MMSI: 305444000.

Date/timePositionNaut miles runAvg speedWind from/ knotsBaromVisibWave heightAir tempDewpointWater temp
2014-Jul-22 12:26N 54°37' W 005°54'0 0.0
2014-Jul-22 09:29N 54°37' W 005°54'0 0.0
2014-Jul-22 07:11N 54°37' W 005°54'0 0.0
2014-Jul-21 23:23N 54°37' W 005°54'0 0.0
2014-Jul-21 22:14N 54°37' W 005°54'0 0.0
2014-Jul-21 15:29N 54°37' W 005°54'0 0.0
2014-Jul-21 14:29N 54°37' W 005°54'0 0.0
2014-Jul-21 13:32N 54°37' W 005°54'0 0.0
2014-Jul-21 12:26N 54°37' W 005°54'0 0.0
2014-Jul-21 11:32N 54°37' W 005°54'0 0.0
2014-Jul-21 10:29N 54°37' W 005°54'0 0.0
2014-Jul-21 09:29N 54°37' W 005°54'0 0.0
2014-Jul-21 08:26N 54°37' W 005°54'0 0.0
2014-Jul-21 07:29N 54°37' W 005°54'0 0.0
2014-Jul-21 05:32N 54°37' W 005°54'0 0.0
2014-Jul-20 18:31N 54°37' W 005°54'8 8.4
2014-Jul-20 17:33N 54°42' W 005°43'1110.9
2014-Jul-20 16:33N 54°52' W 005°36'1512.3
2014-Jul-20 15:21N 55°05' W 005°49'1113.3
2014-Jul-20 14:33N 55°14' W 005°59'1212.1
2014-Jul-20 13:33N 55°22' W 006°16'1211.8
2014-Jul-20 12:33N 55°31' W 006°28'1110.9
2014-Jul-20 11:33N 55°40' W 006°40'1010.2
2014-Jul-20 10:33N 55°48' W 006°50'142 9.5
2014-Jul-19 19:33N 58°08' W 006°02'1111.2
2014-Jul-19 18:33N 58°16' W 005°48'1111.1
2014-Jul-19 17:32N 58°25' W 005°33'37 9.2
2014-Jul-19 13:33N 58°42' W 004°31'1010.0
2014-Jul-19 12:33N 58°43' W 004°12'1010.4
2014-Jul-19 11:33N 58°43' W 003°52'1111.0
2014-Jul-19 10:33N 58°43' W 003°31'1313.0
2014-Jul-19 09:33N 58°43' W 003°06'1313.1
2014-Jul-19 08:33N 58°43' W 002°41'40210.4
2014-Jul-17 18:06N 57°49' E 009°56'610.6
2014-Jul-17 17:33N 57°49' E 010°07'1010.1
2014-Jul-17 16:33N 57°49' E 010°26'1010.1
2014-Jul-17 15:33N 57°48' E 010°45'1110.7
2014-Jul-17 14:33N 57°41' E 010°60'1010.4
2014-Jul-17 13:34N 57°37' E 011°18'1110.6
2014-Jul-17 12:33N 57°35' E 011°37'2 2.0
2014-Jul-17 11:33N 57°35' E 011°41'0 0.0
2014-Jul-17 10:34N 57°35' E 011°41'2 2.0
2014-Jul-17 09:34N 57°33' E 011°39'1010.1
2014-Jul-17 08:33N 57°25' E 011°30'1110.7
2014-Jul-17 07:33N 57°14' E 011°35'1111.0
2014-Jul-17 06:33N 57°04' E 011°42'1111.0
2014-Jul-17 05:33N 56°54' E 011°49'1110.5
2014-Jul-17 04:33N 56°43' E 011°52'1110.8
2014-Jul-17 03:34N 56°34' E 011°41'  
Track history (hours):
 
Tides and Currents Weather Stations Pressure Air Temp Water Temp Dewpoint Dewpoint Depression Visibility Wind Speed Wind Dir Waves Ship Positions

Joy

Last reported at 2014-Jul-22 12:26 UTC. Time now 2014-Jul-22 15:02 UTC.
Position N 54°37' W 005°54'.

Length 105 m; draft 6.2 m.

Type: Cargo ship. MMSI: 305444000.

Date/timePositionNaut miles runAvg speedWind from/ knotsBaromVisibWave heightAir tempDewpointWater temp
2014-Jul-22 12:26N 54°37' W 005°54'0 0.0
2014-Jul-22 09:29N 54°37' W 005°54'0 0.0
2014-Jul-22 07:11N 54°37' W 005°54'0 0.0
2014-Jul-21 23:23N 54°37' W 005°54'0 0.0
2014-Jul-21 22:14N 54°37' W 005°54'0 0.0
2014-Jul-21 15:29N 54°37' W 005°54'0 0.0
2014-Jul-21 14:29N 54°37' W 005°54'0 0.0
2014-Jul-21 13:32N 54°37' W 005°54'0 0.0
2014-Jul-21 12:26N 54°37' W 005°54'0 0.0
2014-Jul-21 11:32N 54°37' W 005°54'0 0.0
2014-Jul-21 10:29N 54°37' W 005°54'0 0.0
2014-Jul-21 09:29N 54°37' W 005°54'0 0.0
2014-Jul-21 08:26N 54°37' W 005°54'0 0.0
2014-Jul-21 07:29N 54°37' W 005°54'0 0.0
2014-Jul-21 05:32N 54°37' W 005°54'0 0.0
2014-Jul-20 18:31N 54°37' W 005°54'8 8.4
2014-Jul-20 17:33N 54°42' W 005°43'1110.9
2014-Jul-20 16:33N 54°52' W 005°36'1512.3
2014-Jul-20 15:21N 55°05' W 005°49'1113.3
2014-Jul-20 14:33N 55°14' W 005°59'1212.1
2014-Jul-20 13:33N 55°22' W 006°16'1211.8
2014-Jul-20 12:33N 55°31' W 006°28'1110.9
2014-Jul-20 11:33N 55°40' W 006°40'1010.2
2014-Jul-20 10:33N 55°48' W 006°50'142 9.5
2014-Jul-19 19:33N 58°08' W 006°02'1111.2
2014-Jul-19 18:33N 58°16' W 005°48'1111.1
2014-Jul-19 17:32N 58°25' W 005°33'37 9.2
2014-Jul-19 13:33N 58°42' W 004°31'1010.0
2014-Jul-19 12:33N 58°43' W 004°12'1010.4
2014-Jul-19 11:33N 58°43' W 003°52'1111.0
2014-Jul-19 10:33N 58°43' W 003°31'1313.0
2014-Jul-19 09:33N 58°43' W 003°06'1313.1
2014-Jul-19 08:33N 58°43' W 002°41'40210.4
2014-Jul-17 18:06N 57°49' E 009°56'610.6
2014-Jul-17 17:33N 57°49' E 010°07'1010.1
2014-Jul-17 16:33N 57°49' E 010°26'1010.1
2014-Jul-17 15:33N 57°48' E 010°45'1110.7
2014-Jul-17 14:33N 57°41' E 010°60'1010.4
2014-Jul-17 13:34N 57°37' E 011°18'1110.6
2014-Jul-17 12:33N 57°35' E 011°37'2 2.0
2014-Jul-17 11:33N 57°35' E 011°41'0 0.0
2014-Jul-17 10:34N 57°35' E 011°41'2 2.0
2014-Jul-17 09:34N 57°33' E 011°39'1010.1
2014-Jul-17 08:33N 57°25' E 011°30'1110.7
2014-Jul-17 07:33N 57°14' E 011°35'1111.0
2014-Jul-17 06:33N 57°04' E 011°42'1111.0
2014-Jul-17 05:33N 56°54' E 011°49'1110.5
2014-Jul-17 04:33N 56°43' E 011°52'1110.8
2014-Jul-17 03:34N 56°34' E 011°41'  

Dump ship's entire track history